Time;durP1;ratioP1;P1;durP2;ratioP2;P2;SDS_P1;SDS_P2;PMS_P1;PMS_P2;Temp;Humidity;BMP_temperature;BMP_pressure;BME280_temperature;BME280_humidity;BME280_pressure;Samples;Min_cycle;Max_cycle;Signal;HPM_P1;HPM_P2
2022/01/04 00:01:32;;;;;;;13.52;7.38;;;;;;;-146.64;100.00;50651.31;5087855;27;20387;-76
2022/01/04 00:03:57;;;;;;;15.32;7.72;;;;;;;-146.64;100.00;51640.72;5130659;27;20111;-77
2022/01/04 00:06:22;;;;;;;17.20;7.40;;;;;;;-146.64;100.00;51185.00;5118465;27;20050;-77
2022/01/04 00:08:48;;;;;;;12.52;6.88;;;;;;;-146.64;100.00;52381.94;5116399;27;20042;-76
2022/01/04 00:11:19;;;;;;;15.43;6.90;;;;;;;-146.64;100.00;52938.44;5097084;27;20034;-76
2022/01/04 00:13:45;;;;;;;17.45;8.00;;;;;;;-146.64;100.00;51203.47;5106678;27;20114;-76
2022/01/04 00:16:11;;;;;;;14.98;7.43;;;;;;;-146.64;100.00;51102.88;5113461;27;20066;-76
2022/01/04 00:18:40;;;;;;;15.73;7.25;;;;;;;-146.64;100.00;49777.03;5109289;27;20568;-76
2022/01/04 00:21:06;;;;;;;17.05;8.13;;;;;;;-146.64;100.00;48349.09;5099166;27;20542;-76
2022/01/04 00:23:32;;;;;;;14.65;7.18;;;;;;;-146.64;100.00;48886.56;5117918;27;20106;-75
2022/01/04 00:25:58;;;;;;;12.43;7.40;;;;;;;-146.64;100.00;49247.66;5101251;27;20117;-76
2022/01/04 00:28:24;;;;;;;19.08;7.22;;;;;;;-146.64;100.00;49005.56;5124707;27;20027;-77
2022/01/04 00:30:49;;;;;;;17.20;8.15;;;;;;;-146.64;100.00;47877.31;5094188;27;20035;-77
2022/01/04 00:33:16;;;;;;;13.32;6.95;;;;;;;-146.64;100.00;47547.09;5115879;27;20031;-76
2022/01/04 00:35:42;;;;;;;12.05;7.45;;;;;;;-146.64;100.00;48478.31;5113110;27;20027;-76
2022/01/04 00:38:08;;;;;;;16.70;8.45;;;;;;;-146.64;100.00;48369.59;5112759;27;20027;-76
2022/01/04 00:40:34;;;;;;;17.52;7.95;;;;;;;-146.64;100.00;49044.53;5098271;27;20027;-76
2022/01/04 00:42:59;;;;;;;12.07;7.28;;;;;;;-146.64;100.00;49206.63;5110813;28;20023;-76
2022/01/04 00:45:26;;;;;;;13.90;7.85;;;;;;;-146.64;100.00;50269.56;5114699;27;20539;-76
2022/01/04 00:50:20;;;;;;;13.50;7.43;;;;;;;-146.64;100.00;50782.66;5103280;27;20052;-76
2022/01/04 00:52:46;;;;;;;7.43;6.60;;;;;;;-146.64;100.00;50885.31;5108163;27;20076;-77
2022/01/04 00:55:11;;;;;;;14.38;7.75;;;;;;;-146.64;100.00;51185.00;5111296;27;20271;-76
2022/01/04 00:57:37;;;;;;;17.13;7.35;;;;;;;-146.64;100.00;50610.25;5094328;27;20051;-76
2022/01/04 01:00:04;;;;;;;13.20;7.45;;;;;;;-146.64;100.00;51380.00;5111420;27;20026;-76
2022/01/04 01:02:29;;;;;;;13.07;7.28;;;;;;;-146.64;100.00;50505.59;5106044;27;20043;-77
2022/01/04 01:04:55;;;;;;;12.23;7.80;;;;;;;-146.64;100.00;51285.56;5121074;27;20086;-76
2022/01/04 01:07:20;;;;;;;13.02;7.88;;;;;;;-146.64;100.00;51710.53;5115301;27;20034;-77
2022/01/04 01:10:02;;;;;;;16.00;7.45;;;;;;;-146.64;100.00;52459.97;5113000;27;20099;-77
2022/01/04 01:12:27;;;;;;;15.65;7.82;;;;;;;-146.64;100.00;52355.25;5106191;27;20474;-76
2022/01/04 01:14:54;;;;;;;14.18;9.45;;;;;;;-146.64;100.00;52671.47;5095586;27;20038;-76
2022/01/04 01:17:19;;;;;;;15.50;8.70;;;;;;;-146.64;100.00;53201.31;5107750;28;20020;-77
2022/01/04 01:19:45;;;;;;;18.60;8.93;;;;;;;-146.64;100.00;52852.19;5126504;27;20370;-77
2022/01/04 01:22:10;;;;;;;19.35;8.88;;;;;;;-146.64;100.00;52891.22;5097199;28;20436;-76
2022/01/04 01:24:35;;;;;;;17.63;8.63;;;;;;;-146.64;100.00;53464.22;5128022;27;20027;-76
2022/01/04 01:27:01;;;;;;;11.15;8.45;;;;;;;-146.64;100.00;53201.31;5117854;27;20023;-76
2022/01/04 01:29:28;;;;;;;14.52;8.55;;;;;;;-146.64;100.00;53727.13;5101734;28;20031;-76
2022/01/04 01:31:53;;;;;;;14.65;7.93;;;;;;;-146.64;100.00;53990.06;5126250;27;20023;-76
2022/01/04 01:34:19;;;;;;;13.55;9.07;;;;;;;-146.64;100.00;53143.81;5090111;27;20042;-76
2022/01/04 01:36:45;;;;;;;15.87;9.37;;;;;;;-146.64;100.00;52564.69;5094741;27;20023;-77
2022/01/04 01:39:10;;;;;;;16.55;9.63;;;;;;;-146.64;100.00;52347.03;5108169;27;20020;-76
2022/01/04 01:41:36;;;;;;;13.32;9.32;;;;;;;-146.64;100.00;52938.44;5116350;27;20043;-76
2022/01/04 01:44:01;;;;;;;15.30;8.57;;;;;;;-146.64;100.00;51809.09;5093959;27;20020;-76
2022/01/04 01:46:26;;;;;;;16.33;9.50;;;;;;;-146.64;100.00;51673.56;5108247;27;20072;-76
2022/01/04 01:48:52;;;;;;;15.80;9.52;;;;;;;-146.64;100.00;49978.16;5132026;27;20027;-76
2022/01/04 01:51:17;;;;;;;17.20;10.23;;;;;;;-146.64;100.00;49617.00;5103728;28;20048;-76
2022/01/04 01:53:44;;;;;;;18.88;11.15;;;;;;;-146.64;100.00;50179.25;5106846;27;20506;-76
2022/01/04 01:56:09;;;;;;;14.85;9.95;;;;;;;-146.64;100.00;50717.00;5106782;27;20084;-77
2022/01/04 01:58:34;;;;;;;17.58;9.40;;;;;;;-146.64;100.00;51624.31;5097432;27;20065;-76
2022/01/04 02:01:00;;;;;;;17.63;10.52;;;;;;;-146.64;100.00;50755.97;5104492;27;20015;-77
2022/01/04 02:03:25;;;;;;;23.27;10.80;;;;;;;-146.64;100.00;50663.63;5097545;27;20027;-77
2022/01/04 02:05:51;;;;;;;16.33;10.13;;;;;;;-146.64;100.00;50807.31;5095023;27;20038;-76
2022/01/04 02:08:17;;;;;;;15.57;10.80;;;;;;;-146.64;100.00;52137.59;5102925;27;20019;-76
2022/01/04 02:10:44;;;;;;;17.38;10.35;;;;;;;-146.64;100.00;52158.13;5103926;27;20016;-77
2022/01/04 02:13:10;;;;;;;19.35;11.02;;;;;;;-146.64;100.00;51248.63;5113430;27;20057;-76
2022/01/04 02:15:35;;;;;;;20.08;10.25;;;;;;;-146.64;100.00;50271.63;5088841;27;20030;-76
2022/01/04 02:18:00;;;;;;;15.32;9.90;;;;;;;-146.64;100.00;49937.09;5096615;27;20174;-76
2022/01/04 02:20:26;;;;;;;21.00;9.75;;;;;;;-146.64;100.00;50585.63;5080049;27;20038;-77
2022/01/04 02:22:52;;;;;;;11.73;8.35;;;;;;;-146.64;100.00;50987.94;5104922;27;20035;-76
2022/01/04 02:25:17;;;;;;;19.48;8.82;;;;;;;-146.64;100.00;50195.69;5098370;27;20037;-76
2022/01/04 02:27:43;;;;;;;21.58;10.20;;;;;;;-146.64;100.00;50684.16;5108843;27;20031;-77
2022/01/04 02:30:11;;;;;;;19.08;9.43;;;;;;;-146.64;100.00;49317.41;5095693;27;20076;-76
2022/01/04 02:32:37;;;;;;;17.45;9.32;;;;;;;-146.64;100.00;47858.84;5103649;27;20023;-76
2022/01/04 02:35:03;;;;;;;13.88;8.85;;;;;;;-146.64;100.00;49446.69;5120464;27;20027;-77
2022/01/04 02:37:30;;;;;;;17.15;9.32;;;;;;;-146.64;100.00;47910.13;5096648;27;20383;-77
2022/01/04 02:39:56;;;;;;;16.35;10.93;;;;;;;-146.64;100.00;47852.69;5112696;27;20119;-76
2022/01/04 02:42:21;;;;;;;15.83;9.53;;;;;;;-146.64;100.00;48287.53;5101857;28;20482;-76
2022/01/04 02:44:47;;;;;;;16.13;10.43;;;;;;;-146.64;100.00;48242.41;5107453;27;20029;-76
2022/01/04 02:47:14;;;;;;;18.63;10.57;;;;;;;-146.64;100.00;48759.38;5110893;27;20038;-76
2022/01/04 02:49:39;;;;;;;17.67;11.35;;;;;;;-146.64;100.00;48156.25;5090319;27;20034;-76
2022/01/04 02:52:05;;;;;;;20.45;10.00;;;;;;;-146.64;100.00;48494.72;5103706;27;20019;-76
2022/01/04 02:54:32;;;;;;;17.23;9.73;;;;;;;-146.64;100.00;49087.63;5105254;28;20146;-77
2022/01/04 02:56:57;;;;;;;12.70;9.55;;;;;;;-146.64;100.00;48638.31;5124371;27;20141;-77
2022/01/04 02:59:23;;;;;;;13.90;8.98;;;;;;;-146.64;100.00;48985.03;5111341;28;20027;-77
2022/01/04 03:01:48;;;;;;;17.15;8.88;;;;;;;-146.64;100.00;49871.44;5121675;27;20012;-76
2022/01/04 03:04:13;;;;;;;15.80;8.13;;;;;;;-146.64;100.00;49848.88;5109543;27;20023;-76
2022/01/04 03:06:38;;;;;;;13.05;8.70;;;;;;;-146.64;100.00;48628.06;5117581;28;20110;-76
2022/01/04 03:09:04;;;;;;;14.70;7.90;;;;;;;-146.64;100.00;48260.88;5123726;27;20023;-77
2022/01/04 03:11:31;;;;;;;10.48;7.35;;;;;;;-146.64;100.00;48546.00;5112691;28;20035;-77
2022/01/04 03:13:56;;;;;;;14.82;8.23;;;;;;;-146.64;100.00;46983.16;5108892;28;20035;-77
2022/01/04 03:16:21;;;;;;;19.58;8.15;;;;;;;-146.64;100.00;46626.38;5110027;27;20034;-76
2022/01/04 03:19:06;;;;;;;11.75;7.80;;;;;;;-146.64;100.00;46040.00;5101343;28;20031;-77
2022/01/04 03:21:33;;;;;;;10.07;8.05;;;;;;;-146.64;100.00;45261.03;5092426;28;20020;-76
2022/01/04 03:23:58;;;;;;;11.85;7.65;;;;;;;-146.64;100.00;44662.56;5102070;28;20447;-77
2022/01/04 03:26:24;;;;;;;20.20;8.05;;;;;;;-146.64;100.00;44646.19;5124431;27;20023;-75
2022/01/04 03:28:49;;;;;;;17.85;7.93;;;;;;;-146.64;100.00;45314.34;5113101;28;20089;-76
2022/01/04 03:31:15;;;;;;;12.13;7.35;;;;;;;-146.64;100.00;44562.16;5105408;27;20458;-77
2022/01/04 03:33:40;;;;;;;23.10;8.20;;;;;;;-146.64;100.00;44613.38;5109874;28;20072;-76
2022/01/04 03:36:06;;;;;;;12.93;7.80;;;;;;;-146.64;100.00;44722.00;5095445;28;20064;-77
2022/01/04 03:38:33;;;;;;;14.45;7.68;;;;;;;-146.64;100.00;45265.13;5134708;27;20023;-76
2022/01/04 03:40:58;;;;;;;;;;;;;;;-146.64;100.00;46048.19;5100631;27;20047;-76
2022/01/04 03:43:23;;;;;;;19.77;8.60;;;;;;;-146.64;100.00;45121.66;5123980;27;19922;-76
2022/01/04 03:45:49;;;;;;;12.05;7.53;;;;;;;-146.64;100.00;45066.31;5122834;27;20490;-76
2022/01/04 03:48:14;;;;;;;10.30;7.80;;;;;;;-146.64;100.00;46175.31;5128598;27;20607;-76
2022/01/04 03:50:40;;;;;;;14.73;7.30;;;;;;;-146.64;100.00;45753.00;5112850;27;20398;-76
2022/01/04 03:53:06;;;;;;;10.38;6.38;;;;;;;-146.64;100.00;44668.72;5104254;27;20053;-77
2022/01/04 03:55:31;;;;;;;12.57;7.35;;;;;;;-146.64;100.00;44820.38;5109062;27;20035;-76
2022/01/04 03:57:56;;;;;;;10.88;6.45;;;;;;;-146.64;100.00;44502.72;5112198;27;20024;-77
2022/01/04 04:00:22;;;;;;;12.90;6.50;;;;;;;-146.64;100.00;45336.88;5110459;27;20170;-77
2022/01/04 04:02:47;;;;;;;9.77;7.03;;;;;;;-146.64;100.00;47711.19;5124362;27;20027;-76
2022/01/04 04:05:13;;;;;;;17.42;7.18;;;;;;;-146.64;100.00;48342.94;5090627;28;20027;-76
2022/01/04 04:07:57;;;;;;;13.82;8.05;;;;;;;-146.64;100.00;51096.72;5101290;27;20041;-77
2022/01/04 04:10:22;;;;;;;13.00;7.75;;;;;;;-146.64;100.00;55305.00;5119291;27;20039;-75
2022/01/04 04:12:47;;;;;;;10.45;7.90;;;;;;;-146.64;100.00;56094.16;5120479;27;20023;-76
2022/01/04 04:15:13;;;;;;;9.43;7.03;;;;;;;-146.64;100.00;58199.34;5111773;27;20390;-76
2022/01/04 04:17:38;;;;;;;18.73;8.05;;;;;;;-146.64;100.00;58725.81;5140532;27;20274;-76
2022/01/04 04:20:05;;;;;;;10.57;7.40;;;;;;;-146.64;100.00;57672.94;5099711;27;20119;-76
2022/01/04 04:22:30;;;;;;;12.57;7.10;;;;;;;-146.64;100.00;57672.94;5111497;27;20212;-76
2022/01/04 04:24:55;;;;;;;9.52;7.10;;;;;;;-146.64;100.00;57672.94;5114449;27;20035;-77
2022/01/04 04:27:21;;;;;;;10.98;7.43;;;;;;;-146.64;100.00;58462.56;5128458;27;20031;-77
2022/01/04 04:29:46;;;;;;;15.15;8.20;;;;;;;-146.64;100.00;56357.25;5112306;27;20434;-77
2022/01/04 04:32:11;;;;;;;13.05;7.82;;;;;;;-146.64;100.00;58462.56;5097319;27;20080;-76
2022/01/04 04:34:37;;;;;;;10.65;7.90;;;;;;;-146.64;100.00;57672.94;5115020;27;20116;-76
2022/01/04 04:37:03;;;;;;;12.63;7.97;;;;;;;-146.64;100.00;57409.78;5126979;27;20068;-77
2022/01/04 04:39:28;;;;;;;10.13;7.43;;;;;;;-146.64;100.00;57146.59;5088723;27;20070;-76
2022/01/04 04:41:54;;;;;;;12.25;7.45;;;;;;;-146.64;100.00;56883.47;5090728;27;20050;-76
2022/01/04 04:44:19;;;;;;;19.83;8.23;;;;;;;-146.64;100.00;57146.59;5115039;27;20027;-76
2022/01/04 04:46:45;;;;;;;14.38;8.50;;;;;;;-146.64;100.00;57936.13;5115001;27;20053;-76
2022/01/04 04:49:10;;;;;;;13.98;7.90;;;;;;;-146.64;100.00;56094.16;5128623;27;20128;-77
2022/01/04 04:51:36;;;;;;;10.85;7.72;;;;;;;-146.64;100.00;55305.00;5096061;27;20089;-76
2022/01/04 04:54:01;;;;;;;15.15;8.25;;;;;;;-146.64;100.00;54778.97;5132074;27;20057;-77
2022/01/04 04:56:27;;;;;;;12.82;9.15;;;;;;;-146.64;100.00;56357.25;5095853;27;20464;-75
2022/01/04 04:58:52;;;;;;;18.35;8.95;;;;;;;-146.64;100.00;56094.16;5099416;27;20060;-78
2022/01/04 05:01:17;;;;;;;18.27;9.40;;;;;;;-146.64;100.00;55041.97;5093590;28;20068;-76
2022/01/04 05:03:43;;;;;;;13.85;9.35;;;;;;;-146.64;100.00;53990.06;5101796;27;20077;-75
2022/01/04 05:06:08;;;;;;;20.20;9.70;;;;;;;-146.64;100.00;52232.03;5115498;27;20494;-76
2022/01/04 05:08:34;;;;;;;15.27;10.82;;;;;;;-146.64;100.00;51287.63;5106333;27;20023;-76
2022/01/04 05:10:59;;;;;;;24.02;10.77;;;;;;;-146.64;100.00;53990.06;5097588;27;20031;-76
2022/01/04 05:13:24;;;;;;;18.70;10.90;;;;;;;-146.64;100.00;53990.06;5112112;27;20034;-76
2022/01/04 05:15:50;;;;;;;24.65;11.35;;;;;;;-146.64;100.00;55831.06;5114016;27;20031;-77
2022/01/04 05:18:19;;;;;;;13.93;10.57;;;;;;;-146.64;100.00;53406.72;5111513;27;20027;-76
2022/01/04 05:20:44;;;;;;;17.90;10.88;;;;;;;-146.64;100.00;52737.19;5110838;27;20130;-76
2022/01/04 05:23:11;;;;;;;17.23;10.20;;;;;;;-146.64;100.00;53727.13;5115396;27;20076;-77
2022/01/04 05:25:36;;;;;;;14.25;11.57;;;;;;;-146.64;100.00;55305.00;5099860;27;20038;-76
2022/01/04 05:28:04;;;;;;;12.65;9.38;;;;;;;-146.64;100.00;55568.03;5109459;27;20067;-76
2022/01/04 05:30:30;;;;;;;15.65;9.88;;;;;;;-146.64;100.00;53201.31;5125059;27;20023;-76
2022/01/04 05:32:55;;;;;;;15.27;9.98;;;;;;;-146.64;100.00;52593.44;5093720;28;20613;-76
2022/01/04 05:35:20;;;;;;;15.65;8.90;;;;;;;-146.64;100.00;52774.16;5107999;27;20395;-77
2022/01/04 05:37:46;;;;;;;13.23;9.70;;;;;;;-146.64;100.00;52823.44;5088674;27;20041;-77
2022/01/04 05:40:11;;;;;;;17.65;9.25;;;;;;;-146.64;100.00;53698.38;5126758;27;20027;-76
2022/01/04 05:42:40;;;;;;;22.05;9.30;;;;;;;-146.64;100.00;55568.03;5113268;27;20023;-76
2022/01/04 05:45:06;;;;;;;14.57;9.98;;;;;;;-146.64;100.00;55568.03;5132402;27;20034;-77
2022/01/04 05:47:32;;;;;;;17.02;9.02;;;;;;;-146.64;100.00;57409.78;5108313;27;20027;-76
2022/01/04 05:49:57;;;;;;;25.38;10.35;;;;;;;-146.64;100.00;58199.34;5106820;27;20051;-76
2022/01/04 05:52:23;;;;;;;11.10;8.60;;;;;;;-146.64;100.00;57409.78;5101657;27;20381;-76
2022/01/04 05:54:49;;;;;;;16.67;9.35;;;;;;;-146.64;100.00;57146.59;5120977;27;20430;-77
2022/01/04 05:57:18;;;;;;;13.52;9.13;;;;;;;-146.64;100.00;56883.47;5107497;27;20386;-76
2022/01/04 05:59:43;;;;;;;16.33;8.60;;;;;;;-146.64;100.00;56094.16;5101377;27;20390;-76
2022/01/04 06:02:09;;;;;;;11.50;8.93;;;;;;;-146.64;100.00;56094.16;5098673;27;20027;-76
2022/01/04 06:04:34;;;;;;;12.38;8.88;;;;;;;-146.64;100.00;56357.25;5106913;27;20466;-76
2022/01/04 06:06:59;;;;;;;13.15;9.38;;;;;;;-146.64;100.00;56883.47;5097440;27;20072;-76
2022/01/04 06:09:29;;;;;;;15.10;9.30;;;;;;;-146.64;100.00;56357.25;5113110;27;20035;-75
2022/01/04 06:12:00;;;;;;;15.25;9.88;;;;;;;-146.64;100.00;58199.34;5113826;27;20071;-75
2022/01/04 06:17:11;;;;;;;14.10;9.05;;;;;;;-146.64;100.00;57672.94;5114859;27;20076;-77
2022/01/04 06:19:37;;;;;;;15.10;9.50;;;;;;;-146.64;100.00;57936.13;5112935;27;20037;-76
2022/01/04 06:22:09;;;;;;;19.20;9.70;;;;;;;-146.64;100.00;56620.34;5133920;27;20106;-76
2022/01/04 06:24:36;;;;;;;14.00;9.45;;;;;;;-146.64;100.00;58199.34;5124811;27;20027;-77
2022/01/04 06:27:04;;;;;;;16.33;10.68;;;;;;;-146.64;100.00;57936.13;5089819;27;20102;-76
2022/01/04 06:29:30;;;;;;;21.77;10.70;;;;;;;-146.64;100.00;58725.81;5114637;27;20467;-76
2022/01/04 06:31:55;;;;;;;21.25;11.68;;;;;;;-146.64;100.00;57936.13;5115204;28;20058;-77
2022/01/04 06:34:20;;;;;;;25.42;11.05;;;;;;;-146.64;100.00;57409.78;5099970;27;20032;-76
2022/01/04 06:36:46;;;;;;;13.68;10.55;;;;;;;-146.64;100.00;56620.34;5104104;27;20042;-76
2022/01/04 06:39:11;;;;;;;14.85;11.52;;;;;;;-146.64;100.00;57936.13;5113034;27;20026;-77
2022/01/04 06:41:36;;;;;;;16.00;11.43;;;;;;;-146.64;100.00;57672.94;5126927;27;20022;-77
2022/01/04 06:44:02;;;;;;;14.48;11.55;;;;;;;-146.64;100.00;58199.34;5090214;27;20023;-77
2022/01/04 06:46:27;;;;;;;23.25;12.50;;;;;;;-146.64;100.00;59252.38;5116915;27;20407;-76
2022/01/04 06:48:52;;;;;;;20.67;12.65;;;;;;;-146.64;100.00;60042.31;5116866;27;20083;-77
2022/01/04 06:51:18;;;;;;;17.83;13.32;;;;;;;-146.64;100.00;60305.66;5129717;27;20039;-76
2022/01/04 06:53:44;;;;;;;21.00;12.57;;;;;;;-146.64;100.00;60832.41;5128503;27;20386;-76
2022/01/04 06:56:09;;;;;;;24.70;13.52;;;;;;;-146.64;100.00;60305.66;5097829;28;20019;-77
2022/01/04 06:58:35;;;;;;;20.25;13.55;;;;;;;-146.64;100.00;61095.81;5146140;27;20042;-76
2022/01/04 07:01:00;;;;;;;18.38;13.05;;;;;;;-146.64;100.00;62149.59;5115018;28;20480;-77
2022/01/04 07:03:25;;;;;;;24.35;12.85;;;;;;;-146.64;100.00;60305.66;5110981;28;20031;-76
2022/01/04 07:05:50;;;;;;;23.40;13.68;;;;;;;-146.64;100.00;59778.97;5132935;27;20028;-77
2022/01/04 07:08:16;;;;;;;23.80;14.15;;;;;;;-146.64;100.00;60305.66;5128721;27;20027;-76
2022/01/04 07:10:41;;;;;;;19.52;14.70;;;;;;;-146.64;100.00;59515.66;5130834;27;20019;-76
2022/01/04 07:13:07;;;;;;;24.95;14.95;;;;;;;-146.64;100.00;59778.97;5123116;27;20114;-76
2022/01/04 07:15:32;;;;;;;25.63;15.35;;;;;;;-146.64;100.00;60569.03;5137165;27;20347;-76
2022/01/04 07:17:57;;;;;;;25.55;13.93;;;;;;;-146.64;100.00;61359.25;5118607;27;20110;-74
2022/01/04 07:20:23;;;;;;;22.92;13.07;;;;;;;-146.64;100.00;61622.69;5117903;27;20092;-75
2022/01/04 07:22:48;;;;;;;19.50;15.02;;;;;;;-146.64;100.00;61622.69;5096678;27;20064;-75
2022/01/04 07:25:13;;;;;;;20.70;14.38;;;;;;;-146.64;100.00;60569.03;5118277;27;20068;-74
2022/01/04 07:27:39;;;;;;;17.30;13.23;;;;;;;-146.64;100.00;61359.25;5111494;27;20043;-74
2022/01/04 07:30:05;;;;;;;23.40;14.40;;;;;;;-146.64;100.00;62413.09;5100995;27;20134;-74
2022/01/04 07:32:30;;;;;;;18.60;14.23;;;;;;;-146.64;100.00;62940.13;5109472;27;20029;-74
2022/01/04 07:34:56;;;;;;;26.75;14.52;;;;;;;-146.64;100.00;62940.13;5118485;27;20031;-74
2022/01/04 07:37:22;;;;;;;21.17;14.90;;;;;;;-146.64;100.00;62676.59;5092329;27;20030;-74
2022/01/04 07:39:47;;;;;;;24.83;16.15;;;;;;;-146.64;100.00;62149.59;5134630;27;20027;-74
2022/01/04 07:42:13;;;;;;;31.73;16.63;;;;;;;-146.64;100.00;62676.59;5125590;27;20162;-74
2022/01/04 07:44:38;;;;;;;26.75;16.33;;;;;;;-146.64;100.00;63730.81;5130964;27;20031;-74
2022/01/04 07:47:03;;;;;;;23.17;16.15;;;;;;;-146.64;100.00;63994.41;5128996;27;20034;-74
2022/01/04 07:49:29;;;;;;;25.23;16.13;;;;;;;-146.64;100.00;64258.03;5114109;27;20438;-74
2022/01/04 07:51:54;;;;;;;22.80;15.82;;;;;;;-146.64;100.00;63467.22;5104967;28;20067;-73
2022/01/04 07:54:19;;;;;;;29.23;17.02;;;;;;;-146.64;100.00;62940.13;5112966;28;20038;-73
2022/01/04 07:56:45;;;;;;;28.88;17.35;;;;;;;-146.64;100.00;63203.69;5088512;28;20036;-74
2022/01/04 07:59:10;;;;;;;25.95;15.80;;;;;;;-146.64;100.00;62676.59;5095177;28;20023;-74
2022/01/04 08:01:35;;;;;;;26.08;16.88;;;;;;;-146.64;100.00;63467.22;5111902;28;20020;-74
2022/01/04 08:04:01;;;;;;;27.25;17.20;;;;;;;-146.64;100.00;63203.69;5110862;28;20027;-74
2022/01/04 08:06:27;;;;;;;26.27;16.33;;;;;;;-146.64;100.00;62940.13;5113123;28;20102;-74
2022/01/04 08:08:52;;;;;;;36.00;17.70;;;;;;;-146.64;100.00;62676.59;5095030;28;20043;-74
2022/01/04 08:11:19;;;;;;;28.98;20.90;;;;;;;-146.64;100.00;62149.59;5094765;28;20020;-74
2022/01/04 08:13:44;;;;;;;34.28;21.27;;;;;;;-146.64;100.00;62413.09;5100664;27;20076;-74
2022/01/04 08:16:09;;;;;;;32.30;20.90;;;;;;;-146.64;100.00;62413.09;5108115;28;20031;-73
2022/01/04 08:18:35;;;;;;;38.87;21.00;;;;;;;-146.64;100.00;61886.13;5105851;28;20046;-74
2022/01/04 08:21:03;;;;;;;34.25;20.35;;;;;;;-146.64;100.00;61622.69;5093468;28;20122;-74
2022/01/04 08:23:30;;;;;;;23.90;16.75;;;;;;;-146.64;100.00;62149.59;5100924;27;20032;-74
2022/01/04 08:25:55;;;;;;;31.23;18.25;;;;;;;-146.64;100.00;62940.13;5091517;28;20088;-74
2022/01/04 08:28:21;;;;;;;25.50;18.00;;;;;;;-146.64;100.00;66103.78;5096929;27;20027;-74
2022/01/04 08:30:46;;;;;;;24.33;17.60;;;;;;;-146.64;100.00;67422.72;5120749;27;20032;-74
2022/01/04 08:33:12;;;;;;;23.75;16.75;;;;;;;-146.64;100.00;68478.19;5105323;28;20368;-74
2022/01/04 08:35:38;;;;;;;25.95;17.30;;;;;;;-146.64;100.00;68478.19;5110852;28;20114;-74
2022/01/04 08:38:04;;;;;;;22.77;16.00;;;;;;;-146.64;100.00;69269.97;5111354;27;20020;-74
2022/01/04 08:40:30;;;;;;;26.17;15.70;;;;;;;-146.64;100.00;70061.91;5111251;28;20437;-74
2022/01/04 08:42:55;;;;;;;26.15;16.08;;;;;;;-146.64;100.00;69797.91;5111902;28;20023;-74
2022/01/04 08:45:21;;;;;;;18.15;14.93;;;;;;;-146.64;100.00;69533.94;5112709;28;20035;-74
2022/01/04 08:47:47;;;;;;;23.65;15.13;;;;;;;-146.64;100.00;70061.91;5098661;28;20032;-74
2022/01/04 08:50:14;;;;;;;22.85;14.85;;;;;;;-146.64;100.00;69006.03;5110078;28;20519;-74
2022/01/04 08:52:39;;;;;;;21.70;15.13;;;;;;;-146.64;100.00;69797.91;5097582;28;20032;-74
2022/01/04 08:55:06;;;;;;;31.10;15.07;;;;;;;-146.64;100.00;71118.06;5109874;28;20054;-74
2022/01/04 08:57:31;;;;;;;27.67;14.93;;;;;;;-146.64;100.00;72967.03;5109984;28;20027;-74
2022/01/04 08:59:57;;;;;;;27.67;14.02;;;;;;;-146.64;100.00;75345.50;5112551;28;20031;-74
2022/01/04 09:02:23;;;;;;;22.55;13.93;;;;;;;-146.64;100.00;76667.50;5100725;27;20020;-74
2022/01/04 09:04:48;;;;;;;20.88;13.50;;;;;;;-146.64;100.00;77989.94;5111380;28;20019;-74
2022/01/04 09:07:14;;;;;;;24.15;13.50;;;;;;;-146.64;100.00;78254.47;5092450;27;20185;-75
2022/01/04 09:09:40;;;;;;;18.42;12.25;;;;;;;-146.64;100.00;76403.06;5113276;27;20055;-75
2022/01/04 09:12:05;;;;;;;12.45;10.23;;;;;;;-146.64;100.00;74552.53;5108903;27;20542;-75
2022/01/04 09:14:44;;;;;;;16.55;11.15;;;;;;;-146.64;100.00;74816.84;5112062;28;20028;-75
2022/01/04 09:19:54;;;;;;;14.02;8.98;;;;;;;-146.64;100.00;75609.88;5110697;28;20043;-75
2022/01/04 09:22:20;;;;;;;16.40;11.60;;;;;;;-146.64;100.00;77196.41;5103433;28;20382;-75
2022/01/04 09:24:45;;;;;;;23.65;12.18;;;;;;;-146.64;100.00;78254.47;5101055;27;20109;-75
2022/01/04 09:27:10;;;;;;;19.83;13.00;;;;;;;-146.64;100.00;79048.19;5082921;28;20063;-75
2022/01/04 09:29:36;;;;;;;23.27;13.38;;;;;;;-146.64;100.00;80371.41;5107835;28;20035;-75
2022/01/04 09:32:04;;;;;;;17.80;12.40;;;;;;;-146.64;100.00;80636.09;5109592;28;20024;-75
2022/01/04 09:34:29;;;;;;;19.45;12.18;;;;;;;-146.64;100.00;80636.09;5093023;28;20033;-75
2022/01/04 09:36:55;;;;;;;25.45;13.20;;;;;;;-146.64;100.00;79842.06;5104841;28;20035;-75
2022/01/04 09:39:21;;;;;;;18.05;12.40;;;;;;;-146.64;100.00;80636.09;5088961;28;20585;-75
2022/01/04 09:41:47;;;;;;;16.30;10.82;;;;;;;-146.64;100.00;79842.06;5096308;28;20026;-75
2022/01/04 09:44:13;;;;;;;18.58;11.48;;;;;;;-146.64;100.00;78519.03;5110225;28;20028;-75
2022/01/04 09:46:39;;;;;;;23.45;11.57;;;;;;;-146.64;100.00;77196.41;5090635;28;20092;-76
2022/01/04 09:49:05;;;;;;;26.40;11.13;;;;;;;-146.64;100.00;76138.66;5108485;28;20261;-75
2022/01/04 09:51:31;;;;;;;19.65;9.68;;;;;;;-146.64;100.00;75081.16;5089596;28;20166;-75
2022/01/04 09:53:56;;;;;;;18.00;9.27;;;;;;;-146.64;100.00;74288.22;5087668;28;20027;-75
2022/01/04 09:56:21;;;;;;;16.02;8.23;;;;;;;-146.64;100.00;73231.22;5070943;28;20051;-76
2022/01/04 09:58:47;;;;;;;24.70;9.23;;;;;;;-146.64;100.00;71646.25;5083334;28;20025;-75
2022/01/04 10:01:22;;;;;;;15.07;8.77;;;;;;;-146.64;100.00;70854.00;5083609;28;20028;-75
2022/01/04 10:03:48;;;;;;;20.52;9.02;;;;;;;-146.64;100.00;71646.25;5072234;28;20115;-75
2022/01/04 10:06:16;;;;;;;18.33;7.30;;;;;;;-146.64;100.00;73231.22;5089767;28;20111;-75
2022/01/04 10:08:56;;;;;;;13.15;7.60;;;;;;;-146.64;100.00;72438.66;5076270;28;20417;-75
2022/01/04 10:11:37;;;;;;;10.45;6.30;;;;;;;-146.64;100.00;71646.25;5094964;28;20060;-75
2022/01/04 10:14:43;;;;;;;10.13;5.70;;;;;;;-146.64;100.00;69269.97;5088993;28;20032;-75
2022/01/04 10:17:30;;;;;;;10.63;3.60;;;;;;;-146.64;100.00;62413.09;5082397;28;20042;-75
2022/01/04 10:19:58;;;;;;;12.68;4.00;;;;;;;-146.64;100.00;63203.69;5089753;28;20032;-75
2022/01/04 10:22:30;;;;;;;11.57;3.35;;;;;;;-146.64;100.00;65576.34;5069901;28;20028;-75
2022/01/04 10:25:02;;;;;;;11.23;3.45;;;;;;;-146.64;100.00;66631.31;5083491;28;20467;-75
2022/01/04 10:27:43;;;;;;;12.13;2.88;;;;;;;-146.64;100.00;68478.19;5087384;28;20051;-75
2022/01/04 10:30:21;;;;;;;9.23;3.10;;;;;;;-146.64;100.00;68214.31;5068721;28;20035;-75
2022/01/04 10:32:48;;;;;;;8.13;2.58;;;;;;;-146.64;100.00;69533.94;5085088;28;20475;-75
2022/01/04 10:35:30;;;;;;;10.70;2.47;;;;;;;-146.64;100.00;71910.38;5082965;28;20024;-75
2022/01/04 10:37:58;;;;;;;13.75;2.35;;;;;;;-146.64;100.00;70589.97;5082323;28;20043;-75
2022/01/04 10:40:25;;;;;;;13.90;2.58;;;;;;;-146.64;100.00;73495.47;5060590;28;20024;-75
2022/01/04 10:42:51;;;;;;;7.35;1.98;;;;;;;-146.64;100.00;72967.03;5077244;28;20097;-74
2022/01/04 10:45:26;;;;;;;3.75;1.60;;;;;;;-146.64;100.00;72438.66;5076064;28;20124;-75
2022/01/04 10:47:51;;;;;;;8.93;2.25;;;;;;;-146.64;100.00;74288.22;5084293;28;20105;-75
2022/01/04 10:50:37;;;;;;;10.43;2.05;;;;;;;-146.64;100.00;75609.88;5087676;28;20082;-76
2022/01/04 10:53:04;;;;;;;10.15;1.88;;;;;;;-146.64;100.00;77725.41;5080447;28;20048;-75
2022/01/04 10:55:32;;;;;;;9.38;2.33;;;;;;;-146.64;100.00;78783.59;5099626;28;20023;-76
2022/01/04 10:57:57;;;;;;;17.20;2.15;;;;;;;-146.64;100.00;78519.03;5096898;28;20414;-75
2022/01/04 11:00:24;;;;;;;9.38;1.65;;;;;;;-146.64;100.00;77989.94;5101841;28;20090;-75
2022/01/04 11:02:49;;;;;;;10.40;2.37;;;;;;;-146.64;100.00;77460.91;5096268;28;20105;-75
2022/01/04 11:05:21;;;;;;;7.18;1.52;;;;;;;-146.64;100.00;79048.19;5089423;28;20042;-75